Gratz, Kentucky
Current Conditions -  °F | °C
As of 6:53 AM on Monday 26 Jan 2015 (Local Time) from KFFT Reporting Station
Overcast Overcast  
Wind Chill: 14°   Ceiling: 1100
Heat Index: 25°   Visibility: 10mi
Dew Point: 20°   Wind: 13mph
Humidity: 81%   Direction: 330°NNW
Pressure: 29.82"   Gusts: NA
Location:  38.4804°N, 84.8067°W
Report Text: KFFT 261153Z AUTO 33011KT 10SM OVC011 M04/M07 A2982 RMK AO2 SLP105 60000 70024 T10391067 10033 21039 51028
Loading
Personal Weather Stations






























Interactive Weather Map New forecast layout! Learn more

10-Day Weather Forecast

Advertisements
Track Severe Weather on mobile